Weather observations for the past three days for
Nome, Nome Airport
| Date | Time (akdt) | Wind (kph) | Vis. (km) | Weather | Sky Cond. | Temperature (ºC) | Relative Humidity | Wind Chill (°C) | Heat Index (°C) | Pressure | Precipitation (cm) | ||||||
|---|---|---|---|---|---|---|---|---|---|---|---|---|---|---|---|---|---|
| Air | Dwpt | 6 hour | altimeter (cm) | sea level (mb) | 1 hr | 3 hr | 6 hr | ||||||||||
| Max. | Min. | ||||||||||||||||
| 09 | 21:53 | SW 9 | 16.09 | Fair | CLR | 3.3 | -5.6 | 5.6 | 2.2 | 52% | 1 | 74.98 | 999.5 | ||||
| 09 | 20:53 | S 11 | 16.09 | Fair | CLR | 3.9 | -5 | 53% | 1 | 74.96 | 999.4 | ||||||
| 09 | 19:53 | SW 13 | 16.09 | Fair | CLR | 3.9 | -4.4 | 55% | 1 | 74.98 | 999.7 | ||||||
| 09 | 18:53 | SW 11 | 16.09 | Fair | CLR | 3.3 | -3.3 | 62% | 1 | 75.01 | 1000.0 | ||||||
| 09 | 17:53 | SW 11 | 16.09 | Fair | CLR | 4.4 | -3.9 | 55% | 2 | 75.01 | 1000.0 | ||||||
| 09 | 16:53 | Vrbl 9 | 16.09 | Fair | CLR | 5 | -5 | 49% | 3 | 75.06 | 1000.6 | ||||||
| 09 | 15:53 | NE 11 | 16.09 | Fair | CLR | 4.4 | -5.6 | 5 | 0.6 | 49% | 2 | 75.08 | 1000.9 | ||||
| 09 | 14:53 | NE 20 | 16.09 | Fair | CLR | 4.4 | -5 | 51% | 1 | 75.11 | 1001.4 | ||||||
| 09 | 13:53 | N 19 | 16.09 | Fair | CLR | 3.9 | -5 | 53% | 0 | 75.13 | 1001.8 | ||||||
| 09 | 12:53 | N 19 | 16.09 | Fair | CLR | 3.3 | -6.1 | 51% | -1 | 75.16 | 1002.1 | ||||||
| 09 | 11:53 | N 13 | 16.09 | Fair | CLR | 2.8 | -7.2 | 48% | -0 | 75.18 | 1002.5 | ||||||
| 09 | 10:53 | NW 13 | 16.09 | Fair | CLR | 1.1 | -7.8 | 52% | -2 | 75.23 | 1003.2 | ||||||
| 09 | 09:53 | Vrbl 6 | 16.09 | Fair | CLR | 0.6 | -8.3 | 0.6 | -5 | 52% | 75.26 | 1003.4 | |||||
| 09 | 08:53 | NE 9 | 16.09 | A Few Clouds | FEW050 | -0.6 | -9.4 | 52% | -3 | 75.26 | 1003.5 | ||||||
| 09 | 07:53 | W 7 | 16.09 | Fair | CLR | -3.3 | -8.3 | 69% | -6 | 75.31 | 1004.1 | ||||||
| 09 | 06:53 | N 7 | 16.09 | Fair | CLR | -4.4 | -8.9 | 71% | -7 | 75.34 | 1004.5 | ||||||
| 09 | 05:53 | W 11 | 16.09 | Fair | CLR | -5 | -8.9 | 74% | -9 | 75.36 | 1004.8 | ||||||
| 09 | 04:53 | NW 11 | 16.09 | Fair | CLR | -4.4 | -8.3 | 75% | -8 | 75.44 | 1005.7 | ||||||
| 09 | 03:53 | NW 11 | 16.09 | Fair | CLR | -3.9 | -7.8 | 1.7 | -5 | 75% | -8 | 75.49 | 1006.3 | ||||
| 09 | 02:53 | Calm | 16.09 | Fair | CLR | -3.3 | -6.1 | 81% | 75.54 | 1007.0 | |||||||
| 09 | 01:53 | E 6 | 16.09 | Fair | CLR | -2.8 | -6.7 | 75% | 75.59 | 1007.7 | |||||||
| 09 | 00:53 | Calm | 16.09 | Fair | CLR | -2.2 | -5.6 | 78% | 75.64 | 1008.3 | |||||||
| 08 | 23:53 | N 13 | 16.09 | Fair | CLR | -1.7 | -5.6 | 75% | -6 | 75.67 | 1008.9 | ||||||
| 08 | 22:53 | N 11 | 16.09 | Fair | CLR | -0.6 | -5 | 72% | -4 | 75.72 | 1009.4 | ||||||
| 08 | 21:53 | NW 11 | 16.09 | Fair | CLR | 1.7 | -6.7 | 2.8 | 0 | 54% | -1 | 75.77 | 1010.0 | ||||
| 08 | 20:53 | NW 13 | 16.09 | Fair | CLR | 2.2 | -7.8 | 48% | -1 | 75.82 | 1010.7 | ||||||
| 08 | 19:53 | NW 13 | 16.09 | Fair | CLR | 2.2 | -7.2 | 50% | -1 | 75.84 | 1011.3 | ||||||
| 08 | 18:53 | W 17 | 16.09 | Fair | CLR | 1.7 | -5.6 | 59% | -2 | 75.92 | 1012.1 | ||||||
| 08 | 17:53 | W 19 | 16.09 | Fair | CLR | 1.1 | -3.9 | 70% | -3 | 75.97 | 1012.9 | ||||||
| 08 | 16:53 | W 22 | 16.09 | Fair | CLR | 0.6 | -3.9 | 72% | -4 | 76.05 | 1013.7 | ||||||
| 08 | 15:53 | W 22 | 16.09 | Fair | CLR | 0.6 | -4.4 | 0.6 | -2.2 | 70% | -4 | 76.1 | 1014.5 | ||||
| 08 | 14:53 | W 20 | 16.09 | A Few Clouds | FEW100 | 0 | -4.4 | 73% | -5 | 76.15 | 1015.2 | ||||||
| 08 | 13:53 | W 17 | 16.09 | Fair | CLR | 0 | -5 | 69% | -4 | 76.17 | 1015.7 | ||||||
| 08 | 12:53 | NW 9 | 16.09 | Fair | CLR | 0 | -7.2 | 59% | -3 | 76.23 | 1016.4 | ||||||
| 08 | 11:53 | W 7 | 16.09 | Fair | CLR | -0.6 | -7.8 | 59% | -3 | 76.28 | 1016.9 | ||||||
| 08 | 10:53 | N 11 | 16.09 | Fair | CLR | -1.7 | -7.8 | 63% | -5 | 76.33 | 1017.6 | ||||||
| 08 | 09:53 | N 17 | 16.09 | Fair | CLR | -2.2 | -7.8 | -2.2 | -6.1 | 66% | -7 | 76.35 | 1017.8 | ||||
| 08 | 08:53 | N 15 | 16.09 | Fair | CLR | -2.8 | -7.8 | 69% | -7 | 76.35 | 1018.1 | ||||||
| 08 | 07:53 | N 13 | 16.09 | Fair | CLR | -3.9 | -8.3 | 72% | -8 | 76.4 | 1018.5 | ||||||
| 08 | 06:53 | N 13 | 16.09 | Fair | CLR | -5.6 | -8.9 | 78% | -10 | 76.43 | 1018.8 | ||||||
| 08 | 05:53 | N 9 | 16.09 | Fair | CLR | -5.6 | -8.9 | 78% | -9 | 76.45 | 1019.3 | ||||||
| 08 | 04:53 | N 9 | 16.09 | Fair | CLR | -5 | -8.3 | 78% | -9 | 76.45 | 1019.4 | ||||||
| 08 | 03:53 | N 13 | 16.09 | Mostly Cloudy | BKN027 | -2.8 | -7.8 | -1.7 | -2.8 | 69% | -7 | 76.5 | 1019.8 | ||||
| 08 | 02:53 | NE 15 | 16.09 | Overcast | OVC028 | -2.2 | -7.2 | 69% | -7 | 76.5 | 1020.1 | ||||||
| 08 | 01:53 | NE 13 | 16.09 | Overcast | OVC029 | -2.2 | -7.2 | 69% | -6 | 76.5 | 1020.1 | ||||||
| 08 | 00:53 | NE 11 | 16.09 | Overcast | OVC030 | -1.7 | -6.1 | 72% | -5 | 76.53 | 1020.3 | ||||||
| 07 | 23:53 | NW 7 | 16.09 | Overcast | OVC030 | -2.2 | -5.6 | 78% | -5 | 76.53 | 1020.3 | ||||||
| 07 | 22:53 | W 7 | 16.09 | Overcast | OVC027 | -2.2 | -6.1 | 75% | -5 | 76.53 | 1020.4 | ||||||
| 07 | 21:53 | W 7 | 16.09 | Overcast | OVC026 | -2.2 | -5.6 | -1.7 | -2.8 | 78% | -5 | 76.56 | 1020.5 | ||||
| 07 | 20:53 | SW 11 | 16.09 | Overcast | OVC029 | -2.2 | -5.6 | 78% | -6 | 76.53 | 1020.4 | ||||||
| 07 | 19:53 | SW 9 | 16.09 | Overcast | OVC029 | -2.2 | -5 | 81% | -5 | 76.56 | 1020.6 | ||||||
| 07 | 18:53 | SW 13 | 16.09 | A Few Clouds | FEW023 | -2.2 | -5.6 | 78% | -6 | 76.56 | 1020.5 | ||||||
| 07 | 17:53 | SW 11 | 16.09 | Partly Cloudy | SCT020 | -2.2 | -5.6 | 78% | -6 | 76.56 | 1020.7 | ||||||
| 07 | 16:53 | SW 11 | 16.09 | Partly Cloudy | SCT020 | -2.2 | -6.1 | 75% | -6 | 76.58 | 1020.8 | ||||||
| 07 | 15:53 | SW 13 | 16.09 | A Few Clouds | FEW021 | -2.2 | -6.1 | -2.2 | -4.4 | 75% | -6 | 76.58 | 1020.9 | ||||
| 07 | 14:53 | S 11 | 16.09 | Fair | CLR | -2.8 | -6.1 | 78% | -7 | 76.58 | 1021.0 | ||||||
| 07 | 13:53 | S 11 | 16.09 | A Few Clouds | FEW019 | -2.8 | -6.7 | 75% | -7 | 76.58 | 1021.0 | ||||||
| 07 | 12:53 | S 11 | 16.09 | Fair | CLR | -2.8 | -6.7 | 75% | -7 | 76.58 | 1021.0 | ||||||
| 07 | 11:53 | S 9 | 16.09 | Fair | CLR | -3.3 | -7.2 | 75% | -7 | 76.58 | 1020.9 | ||||||
| 07 | 10:53 | S 7 | 16.09 | Partly Cloudy | SCT015 | -3.3 | -7.2 | 75% | -6 | 76.58 | 1021.0 | ||||||
| 07 | 09:53 | Vrbl 6 | 16.09 | A Few Clouds | FEW012 | -3.9 | -7.8 | -3.9 | -7.8 | 75% | 76.58 | 1020.9 | |||||
| 07 | 08:53 | Calm | 16.09 | Fair | CLR | -4.4 | -7.8 | 77% | 76.58 | 1020.8 | |||||||
| 07 | 07:53 | Calm | 16.09 | Fair | CLR | -5.6 | -8.3 | 82% | 76.58 | 1020.8 | |||||||
| 07 | 06:53 | Calm | 16.09 | Fair | CLR | -6.1 | -8.3 | 85% | 76.56 | 1020.6 | |||||||
| 07 | 05:53 | W 6 | 16.09 | Fair | CLR | -7.2 | -9.4 | 84% | 76.56 | 1020.6 | |||||||
| 07 | 04:53 | NW 6 | 16.09 | Fair | CLR | -6.7 | -8.3 | 89% | 76.53 | 1020.4 | |||||||
| 07 | 03:53 | N 6 | 16.09 | Fair | CLR | -5.6 | -7.2 | -0.6 | -5.6 | 89% | 76.53 | 1020.4 | |||||
| 07 | 02:53 | Calm | 16.09 | Fair | CLR | -5 | -8.3 | 78% | 76.53 | 1020.4 | |||||||
| 07 | 01:53 | NW 9 | 16.09 | Fair | CLR | -4.4 | -7.8 | 77% | -8 | 76.53 | 1020.2 | ||||||
| 07 | 00:53 | NW 6 | 16.09 | Fair | CLR | -2.8 | -7.8 | 69% | 76.5 | 1019.9 | |||||||
| 06 | 23:53 | W 6 | 16.09 | Fair | CLR | -2.2 | -7.2 | 69% | 76.48 | 1019.5 | |||||||
| 06 | 22:53 | N 9 | 16.09 | Fair | CLR | -1.1 | -6.1 | 69% | -4 | 76.45 | 1019.3 | ||||||
| Date | Time (akdt) | Wind (kph) | Vis. (km) | Weather | Sky Cond. | Air | Dwpt | Max. | Min. | Relative Humidity | Wind Chill (°C) | Heat Index (°C) | altimeter (cm) | sea level (mb) | 1 hr | 3 hr | 6 hr |
| 6 hour | |||||||||||||||||
| Temperature (ºC) | Pressure | Precipitation (cm) | |||||||||||||||